Funk Island Bank: Past 24 Hour Conditions

 

Corner Brook

09:30 AM NDT 23 September 2014
This table is a summary of hourly weather conditions for the past 24 hours.
Date / Time
(NDT)
Wind(knots) Conditions Visibility(km) Pressure(kPa) Air tempC) Relative humidity(%) Dew pointC) Humidex
23 September 2014
9:30 WNW 14 N/A N/A 100.8 9 78 6 *
8:30 WSW 11 gust 21 N/A N/A 100.6 10 80 6 *
7:30 WSW 12 gust 21 N/A N/A 100.4 10 83 8 *
6:30 SW 20 gust 35 N/A N/A 100.3 10 83 8 *
5:30 SW 19 gust 31 N/A N/A 100.2 12 81 9 *
4:30 SW 19 gust 28 N/A N/A 100.1 13 79 10 *
3:30 SW 15 gust 24 N/A N/A 100.1 14 79 11 *
2:30 WSW 10 gust 24 N/A N/A 100.0 16 81 13 *
1:30 SW 13 gust 27 N/A N/A 99.9 18 81 14 *
0:30 SW 10 gust 22 N/A N/A 99.9 18 85 16 *
22 September 2014
23:30 SW 9 N/A N/A 99.9 17 84 15 *
22:30 SW 11 gust 16 N/A N/A 99.9 20 84 17 *
21:30 SSW 11 gust 17 N/A N/A 99.9 19 89 17 *
20:30 SSW 11 gust 16 N/A N/A 99.9 19 91 17 *
19:30 SSW 12 gust 18 N/A N/A 99.8 18 90 17 *
18:30 SSW 10 gust 19 N/A N/A 99.8 19 88 17 *
17:30 SW 11 gust 17 N/A N/A 99.7 20 87 18 26
16:30 SW 11 gust 25 N/A N/A 99.5 21 87 19 28
15:30 SSW 17 gust 26 N/A N/A 99.4 21 88 19 28
14:30 SW 13 gust 24 N/A N/A 99.4 21 90 19 28
13:30 S 6 gust 21 N/A N/A 99.5 20 89 19 27
12:30 SSE 8 gust 21 N/A N/A 99.6 21 87 18 27
11:30 SSE 13 gust 27 N/A N/A 99.8 20 82 17 26
10:30 SSE 8 gust 19 N/A N/A 100.1 20 85 17 *
9:30 SSE 6 gust 15 N/A N/A 100.3 20 85 17 *
 
Map of Atlantic - Newfoundland marine weather areas Southwestern Grand Banks - 44138 Banquereau - 44139 Tail of the Bank - 44140 Nickerson Bank - 44251 Northeast Burgeo Bank - 44255 Blanc-Sablon Airport Cap Whittle Chevery Natashquan Airport Heath Point Miscou Island Grand Étang Ingonish Beach North Mountain St.Paul Island J.A. Douglas McCurdy Sydney Airport Charlottetown Airport East Point North Cape Argentia Bonavista Burgeo Cape Race Corner Brook Daniel's Harbour Englee Ferolle Point La Scie Port aux Basques Rocky Harbour Sagona Island St. Anthony Airport St. John's Int'l Airport St. Lawrence Stephenville Airport Twillingate Winterland Wreckhouse Cartwright Airport Mary's Harbour Grates Cove Pool's Island Marticot Island Long Pond Îles de la Madeleine Airport
Legend: buoyBuoy land stationLand Station